• Join FlightAware (Why Join?)
  • Login
  • US Flag 
11:25PM EST


 

Airport Tracker/Info


-or-


 

Live Flight TrackerFlight Track Log ✈ SWA448 ✈ 27-Apr-2014 ✈ KHOU - KSAT

Flight Track Log - Related Links

Times and Time Zones

All times are in EDT time to prevent confusion due to time zone crossing. See the SWA448 flight status page for this flight to view local times or setup timezone preferences in your user account.

Time Position Orientation Groundspeed Altitude Reporting Facility
EDT Latitude Longitude Course Direction KTS MPH feet Rate Location/Type
10:00AM 29.6175 -95.3008 210° Southwest 162 186 1,900  Level Houston Center
10:01AM 29.5869 -95.3231 212° Southwest 182 209 4,700 3,186 Climbing Houston Center
10:02AM 29.5697 -95.3814 251° West 245 282 7,900 3,194 Climbing Houston Center
10:03AM 29.5919 -95.4711 286° West 289 333 11,300 3,463 Climbing Houston Center
10:04AM 29.6197 -95.5750 287° West 333 383 15,000 3,707 Climbing Houston Center
10:05AM 29.6550 -95.7064 287° West 353 406 18,900 3,435 Climbing Houston Center
10:06AM 29.6842 -95.8200 286° West 366 421 22,100 3,220 Climbing Houston Center
10:07AM 29.7158 -95.9367 287° West 378 435 25,500 2,878 Climbing Houston Center
10:08AM 29.7444 -96.0494 286° West 374 430 28,000 1,210 Climbing Houston Center
10:09AM 29.7733 -96.1594 287° West 365 420 28,000  Level Houston Center
10:10AM 29.7867 -96.2733 278° West 362 417 28,000  Level Houston Center
10:11AM 29.7969 -96.4111 275° West 362 417 28,000  Level Houston Center
10:12AM 29.8050 -96.5256 275° West 362 417 28,000  Level Houston Center
10:13AM 29.8133 -96.6406 275° West 362 417 28,000  Level Houston Center
10:14AM 29.8222 -96.7569 275° West 363 418 28,000  Level Houston Center
10:15AM 29.8308 -96.8711 275° West 363 418 28,000  Level Houston Center
10:16AM 29.8392 -96.9847 275° West 362 417 28,000 -488 Level Houston Center
10:17AM 29.8486 -97.1214 275° West 362 417 27,000 -1,463 Descending Houston Center
10:18AM 29.8553 -97.2306 274° West 350 403 25,000 -1,887 Descending Houston Center
10:19AM 29.8625 -97.3339 275° West 333 383 23,100 -1,887 Descending Houston Center
10:20AM 29.8700 -97.4353 275° West 325 374 21,100 -1,984 Descending Houston Center
10:21AM 29.8775 -97.5475 274° West 314 361 19,000 -2,025 Descending Houston Center
10:22AM 29.8797 -97.5794 275° West 312 359 18,400 -2,300 Descending Houston Center
10:22AM 29.8822 -97.6467 272° West 307 353 16,700 -2,097 Descending Houston Center
10:23AM 29.8892 -97.7400 275° West 299 344 14,800 -1,785 Descending Houston Center
10:24AM 29.8969 -97.8425 275° West 292 336 13,100 -1,240 Descending Houston Center
10:25AM 29.8714 -97.9253 250° West 269 310 12,300 -1,587 Descending Houston Center
10:26AM 29.8367 -98.0044 243° Southwest 276 318 9,900 -2,169 Descending Houston Center
10:28AM 29.7981 -98.0942 244° Southwest 271 312 7,600 -1,770 Descending Houston Center
10:28AM 29.7667 -98.1506 237° Southwest 241 277 6,300 -1,452 Descending Houston Center
10:29AM 29.7625 -98.1608 245° Southwest 247 284 6,100 -1,111 Descending Houston Center
10:29AM 29.7367 -98.2119 240° Southwest 233 268 5,300 -871 Descending Houston Center
10:30AM 29.7275 -98.2289 238° Southwest 233 268 5,200 -492 Descending Houston Center
10:30AM 29.7081 -98.2658 239° Southwest 191 220 4,800 -484 Descending Houston Center
10:31AM 29.7011 -98.2800 241° Southwest 182 209 4,700 -393 Descending Houston Center
10:31AM 29.6847 -98.3097 238° Southwest 146 168 4,400 -484 Descending Houston Center
10:32AM 29.6739 -98.3222 225° Southwest 156 180 4,200 -700 Descending Houston Center
10:32AM 29.6542 -98.3422 221° Southwest 148 170 3,700 -871 Descending Houston Center
10:33AM 29.6417 -98.3536 218° Southwest 153 176 3,300 -885 Descending Houston Center
10:33AM 29.6175 -98.3756 218° Southwest 153 176 2,800 -774 Descending Houston Center
10:34AM 29.6067 -98.3875 224° Southwest 153 176 2,500 -787 Descending Houston Center
10:34AM 29.5869 -98.4081 222° Southwest 151 174 2,000 -762 Descending Houston Center
10:35AM 29.5772 -98.4172 219° Southwest 144 166 1,700 -727 Descending Houston Center
10:36AM 29.5578 -98.4356 219° Southwest 124 143 1,200 -677 Descending Houston Center
10:36AM 29.5508 -98.4433 224° Southwest 128 147 1,000 -571 Descending Houston Center
10:38AM 29.5333 -98.4667 225° Southwest  Level FlightAware Approximate
10:45AM 29.5340 -98.4691 225° Southwest  Level Estimated
10:46AM 29.5340 -98.4691 107° East  Level Estimated